sensor_id;sensor_type;location;lat;lon;timestamp;P1;durP1;ratioP1;P2;durP2;ratioP2
45905;SDS011;31619;49.008;12.106;2023-04-03T00:01:14;2.20;;;2.10;;
45905;SDS011;31619;49.008;12.106;2023-04-03T00:03:41;2.85;;;2.65;;
45905;SDS011;31619;49.008;12.106;2023-04-03T00:06:06;2.53;;;2.42;;
45905;SDS011;31619;49.008;12.106;2023-04-03T00:08:33;2.50;;;2.40;;
45905;SDS011;31619;49.008;12.106;2023-04-03T00:11:00;3.22;;;2.92;;
45905;SDS011;31619;49.008;12.106;2023-04-03T00:13:26;3.17;;;2.67;;
45905;SDS011;31619;49.008;12.106;2023-04-03T00:15:52;2.80;;;2.60;;
45905;SDS011;31619;49.008;12.106;2023-04-03T00:18:18;2.30;;;2.20;;
45905;SDS011;31619;49.008;12.106;2023-04-03T00:20:44;2.47;;;2.38;;
45905;SDS011;31619;49.008;12.106;2023-04-03T00:23:10;2.40;;;2.30;;
45905;SDS011;31619;49.008;12.106;2023-04-03T00:25:35;2.75;;;2.55;;
45905;SDS011;31619;49.008;12.106;2023-04-03T00:28:02;3.00;;;2.80;;
45905;SDS011;31619;49.008;12.106;2023-04-03T00:30:28;2.80;;;2.28;;
45905;SDS011;31619;49.008;12.106;2023-04-03T00:32:54;2.47;;;2.38;;
45905;SDS011;31619;49.008;12.106;2023-04-03T00:35:20;2.67;;;2.47;;
45905;SDS011;31619;49.008;12.106;2023-04-03T00:37:46;2.65;;;2.45;;
45905;SDS011;31619;49.008;12.106;2023-04-03T00:40:13;2.60;;;2.40;;
45905;SDS011;31619;49.008;12.106;2023-04-03T00:42:40;2.80;;;2.60;;
45905;SDS011;31619;49.008;12.106;2023-04-03T00:47:35;3.15;;;2.85;;
45905;SDS011;31619;49.008;12.106;2023-04-03T00:50:03;2.10;;;2.00;;
45905;SDS011;31619;49.008;12.106;2023-04-03T00:52:29;3.00;;;2.80;;
45905;SDS011;31619;49.008;12.106;2023-04-03T00:54:57;2.40;;;2.30;;
45905;SDS011;31619;49.008;12.106;2023-04-03T00:57:28;2.85;;;2.65;;
45905;SDS011;31619;49.008;12.106;2023-04-03T00:59:57;3.00;;;2.80;;
45905;SDS011;31619;49.008;12.106;2023-04-03T01:02:28;7.63;;;3.00;;
45905;SDS011;31619;49.008;12.106;2023-04-03T01:04:54;2.55;;;2.35;;
45905;SDS011;31619;49.008;12.106;2023-04-03T01:07:27;4.28;;;2.72;;
45905;SDS011;31619;49.008;12.106;2023-04-03T01:09:58;2.47;;;2.38;;
45905;SDS011;31619;49.008;12.106;2023-04-03T01:12:36;2.63;;;2.53;;
45905;SDS011;31619;49.008;12.106;2023-04-03T01:15:10;2.47;;;2.25;;
45905;SDS011;31619;49.008;12.106;2023-04-03T01:17:42;2.45;;;2.35;;
45905;SDS011;31619;49.008;12.106;2023-04-03T01:20:18;2.42;;;2.33;;
45905;SDS011;31619;49.008;12.106;2023-04-03T01:25:39;3.13;;;2.83;;
45905;SDS011;31619;49.008;12.106;2023-04-03T01:28:08;3.15;;;2.28;;
45905;SDS011;31619;49.008;12.106;2023-04-03T01:30:41;2.35;;;2.25;;
45905;SDS011;31619;49.008;12.106;2023-04-03T01:33:25;2.55;;;2.38;;
45905;SDS011;31619;49.008;12.106;2023-04-03T01:35:51;2.88;;;2.67;;
45905;SDS011;31619;49.008;12.106;2023-04-03T01:38:16;3.00;;;2.80;;
45905;SDS011;31619;49.008;12.106;2023-04-03T01:40:42;3.17;;;2.80;;
45905;SDS011;31619;49.008;12.106;2023-04-03T01:43:08;3.45;;;2.50;;
45905;SDS011;31619;49.008;12.106;2023-04-03T01:45:34;3.47;;;2.67;;
45905;SDS011;31619;49.008;12.106;2023-04-03T01:47:59;3.15;;;2.95;;
45905;SDS011;31619;49.008;12.106;2023-04-03T01:50:25;2.97;;;2.88;;
45905;SDS011;31619;49.008;12.106;2023-04-03T01:52:51;2.70;;;2.50;;
45905;SDS011;31619;49.008;12.106;2023-04-03T01:55:16;2.50;;;2.40;;
45905;SDS011;31619;49.008;12.106;2023-04-03T01:57:42;2.53;;;2.42;;
45905;SDS011;31619;49.008;12.106;2023-04-03T02:00:07;3.72;;;3.53;;
45905;SDS011;31619;49.008;12.106;2023-04-03T02:02:34;2.65;;;2.55;;
45905;SDS011;31619;49.008;12.106;2023-04-03T02:05:00;2.85;;;2.65;;
45905;SDS011;31619;49.008;12.106;2023-04-03T02:07:25;3.17;;;2.97;;
45905;SDS011;31619;49.008;12.106;2023-04-03T02:09:51;3.33;;;2.70;;
45905;SDS011;31619;49.008;12.106;2023-04-03T02:12:17;3.00;;;2.80;;
45905;SDS011;31619;49.008;12.106;2023-04-03T02:14:42;2.85;;;2.67;;
45905;SDS011;31619;49.008;12.106;2023-04-03T02:17:08;3.13;;;2.92;;
45905;SDS011;31619;49.008;12.106;2023-04-03T02:19:36;2.53;;;2.33;;
45905;SDS011;31619;49.008;12.106;2023-04-03T02:22:02;2.75;;;2.65;;
45905;SDS011;31619;49.008;12.106;2023-04-03T02:24:28;2.50;;;2.35;;
45905;SDS011;31619;49.008;12.106;2023-04-03T02:26:54;3.00;;;2.80;;
45905;SDS011;31619;49.008;12.106;2023-04-03T02:29:20;2.95;;;2.75;;
45905;SDS011;31619;49.008;12.106;2023-04-03T02:31:46;2.83;;;2.65;;
45905;SDS011;31619;49.008;12.106;2023-04-03T02:34:11;2.92;;;2.70;;
45905;SDS011;31619;49.008;12.106;2023-04-03T02:36:37;2.63;;;2.42;;
45905;SDS011;31619;49.008;12.106;2023-04-03T02:39:02;3.20;;;2.47;;
45905;SDS011;31619;49.008;12.106;2023-04-03T02:41:28;2.75;;;2.65;;
45905;SDS011;31619;49.008;12.106;2023-04-03T02:43:59;2.95;;;2.75;;
45905;SDS011;31619;49.008;12.106;2023-04-03T02:46:26;2.70;;;2.50;;
45905;SDS011;31619;49.008;12.106;2023-04-03T02:48:51;2.80;;;2.70;;
45905;SDS011;31619;49.008;12.106;2023-04-03T02:51:17;2.63;;;2.47;;
45905;SDS011;31619;49.008;12.106;2023-04-03T02:53:42;3.33;;;3.00;;
45905;SDS011;31619;49.008;12.106;2023-04-03T02:56:08;5.07;;;2.80;;
45905;SDS011;31619;49.008;12.106;2023-04-03T02:58:34;2.40;;;2.20;;
45905;SDS011;31619;49.008;12.106;2023-04-03T03:01:00;3.60;;;3.38;;
45905;SDS011;31619;49.008;12.106;2023-04-03T03:03:26;2.78;;;2.53;;
45905;SDS011;31619;49.008;12.106;2023-04-03T03:06:00;3.10;;;2.90;;
45905;SDS011;31619;49.008;12.106;2023-04-03T03:08:33;3.10;;;2.90;;
45905;SDS011;31619;49.008;12.106;2023-04-03T03:10:59;3.67;;;2.67;;
45905;SDS011;31619;49.008;12.106;2023-04-03T03:13:25;3.05;;;2.85;;
45905;SDS011;31619;49.008;12.106;2023-04-03T03:15:51;3.03;;;2.75;;
45905;SDS011;31619;49.008;12.106;2023-04-03T03:18:17;2.70;;;2.50;;
45905;SDS011;31619;49.008;12.106;2023-04-03T03:20:42;2.80;;;2.60;;
45905;SDS011;31619;49.008;12.106;2023-04-03T03:23:08;3.13;;;2.92;;
45905;SDS011;31619;49.008;12.106;2023-04-03T03:25:37;2.90;;;2.70;;
45905;SDS011;31619;49.008;12.106;2023-04-03T03:28:03;2.72;;;2.53;;
45905;SDS011;31619;49.008;12.106;2023-04-03T03:30:29;3.00;;;2.70;;
45905;SDS011;31619;49.008;12.106;2023-04-03T03:32:54;2.88;;;2.70;;
45905;SDS011;31619;49.008;12.106;2023-04-03T03:35:20;3.47;;;3.03;;
45905;SDS011;31619;49.008;12.106;2023-04-03T03:37:46;2.83;;;2.72;;
45905;SDS011;31619;49.008;12.106;2023-04-03T03:40:12;2.90;;;2.70;;
45905;SDS011;31619;49.008;12.106;2023-04-03T03:42:38;2.40;;;2.30;;
45905;SDS011;31619;49.008;12.106;2023-04-03T03:45:04;2.80;;;2.60;;
45905;SDS011;31619;49.008;12.106;2023-04-03T03:47:30;2.75;;;2.60;;
45905;SDS011;31619;49.008;12.106;2023-04-03T03:49:56;3.47;;;3.28;;
45905;SDS011;31619;49.008;12.106;2023-04-03T03:52:21;3.45;;;3.15;;
45905;SDS011;31619;49.008;12.106;2023-04-03T03:54:47;2.72;;;2.53;;
45905;SDS011;31619;49.008;12.106;2023-04-03T03:57:13;3.08;;;2.88;;
45905;SDS011;31619;49.008;12.106;2023-04-03T03:59:38;2.83;;;2.65;;
45905;SDS011;31619;49.008;12.106;2023-04-03T04:02:06;3.30;;;2.90;;
45905;SDS011;31619;49.008;12.106;2023-04-03T04:04:32;3.63;;;2.88;;
45905;SDS011;31619;49.008;12.106;2023-04-03T04:06:58;3.30;;;3.05;;
45905;SDS011;31619;49.008;12.106;2023-04-03T04:09:25;3.13;;;2.92;;
45905;SDS011;31619;49.008;12.106;2023-04-03T04:11:51;3.08;;;2.78;;
45905;SDS011;31619;49.008;12.106;2023-04-03T04:14:16;3.17;;;3.00;;
45905;SDS011;31619;49.008;12.106;2023-04-03T04:16:42;3.00;;;2.80;;
45905;SDS011;31619;49.008;12.106;2023-04-03T04:19:08;4.93;;;3.10;;
45905;SDS011;31619;49.008;12.106;2023-04-03T04:21:33;4.63;;;3.45;;
45905;SDS011;31619;49.008;12.106;2023-04-03T04:23:59;3.10;;;2.90;;
45905;SDS011;31619;49.008;12.106;2023-04-03T04:26:25;4.53;;;3.30;;
45905;SDS011;31619;49.008;12.106;2023-04-03T04:28:50;3.15;;;2.95;;
45905;SDS011;31619;49.008;12.106;2023-04-03T04:31:16;3.20;;;3.00;;
45905;SDS011;31619;49.008;12.106;2023-04-03T04:33:42;2.85;;;2.75;;
45905;SDS011;31619;49.008;12.106;2023-04-03T04:36:07;3.20;;;2.92;;
45905;SDS011;31619;49.008;12.106;2023-04-03T04:38:33;3.70;;;2.83;;
45905;SDS011;31619;49.008;12.106;2023-04-03T04:40:58;3.70;;;3.40;;
45905;SDS011;31619;49.008;12.106;2023-04-03T04:43:24;4.20;;;3.63;;
45905;SDS011;31619;49.008;12.106;2023-04-03T04:45:59;4.07;;;3.22;;
45905;SDS011;31619;49.008;12.106;2023-04-03T04:48:26;3.10;;;2.90;;
45905;SDS011;31619;49.008;12.106;2023-04-03T04:50:52;3.00;;;2.80;;
45905;SDS011;31619;49.008;12.106;2023-04-03T04:53:17;3.20;;;3.00;;
45905;SDS011;31619;49.008;12.106;2023-04-03T04:55:43;3.03;;;2.80;;
45905;SDS011;31619;49.008;12.106;2023-04-03T04:58:08;3.72;;;3.42;;
45905;SDS011;31619;49.008;12.106;2023-04-03T05:00:34;3.13;;;2.78;;
45905;SDS011;31619;49.008;12.106;2023-04-03T05:03:00;2.85;;;2.65;;
45905;SDS011;31619;49.008;12.106;2023-04-03T05:05:25;2.97;;;2.75;;
45905;SDS011;31619;49.008;12.106;2023-04-03T05:07:51;4.88;;;3.22;;
45905;SDS011;31619;49.008;12.106;2023-04-03T05:10:16;3.63;;;3.25;;
45905;SDS011;31619;49.008;12.106;2023-04-03T05:12:42;2.97;;;2.80;;
45905;SDS011;31619;49.008;12.106;2023-04-03T05:15:08;3.42;;;2.92;;
45905;SDS011;31619;49.008;12.106;2023-04-03T05:17:34;3.10;;;2.90;;
45905;SDS011;31619;49.008;12.106;2023-04-03T05:19:59;3.13;;;2.92;;
45905;SDS011;31619;49.008;12.106;2023-04-03T05:22:25;3.83;;;2.92;;
45905;SDS011;31619;49.008;12.106;2023-04-03T05:24:51;3.22;;;2.90;;
45905;SDS011;31619;49.008;12.106;2023-04-03T05:27:16;2.85;;;2.75;;
45905;SDS011;31619;49.008;12.106;2023-04-03T05:29:42;3.13;;;2.92;;
45905;SDS011;31619;49.008;12.106;2023-04-03T05:32:08;3.20;;;2.90;;
45905;SDS011;31619;49.008;12.106;2023-04-03T05:34:35;3.33;;;3.13;;
45905;SDS011;31619;49.008;12.106;2023-04-03T05:37:01;3.05;;;2.85;;
45905;SDS011;31619;49.008;12.106;2023-04-03T05:39:28;3.90;;;2.97;;
45905;SDS011;31619;49.008;12.106;2023-04-03T05:41:53;2.83;;;2.63;;
45905;SDS011;31619;49.008;12.106;2023-04-03T05:44:19;2.75;;;2.55;;
45905;SDS011;31619;49.008;12.106;2023-04-03T05:46:44;3.05;;;2.33;;
45905;SDS011;31619;49.008;12.106;2023-04-03T05:49:10;3.63;;;3.00;;
45905;SDS011;31619;49.008;12.106;2023-04-03T05:51:36;3.60;;;3.30;;
45905;SDS011;31619;49.008;12.106;2023-04-03T05:56:36;2.92;;;2.60;;
45905;SDS011;31619;49.008;12.106;2023-04-03T05:59:01;3.20;;;3.00;;
45905;SDS011;31619;49.008;12.106;2023-04-03T06:01:27;4.22;;;3.40;;
45905;SDS011;31619;49.008;12.106;2023-04-03T06:03:52;4.57;;;3.50;;
45905;SDS011;31619;49.008;12.106;2023-04-03T06:06:19;3.65;;;3.35;;
45905;SDS011;31619;49.008;12.106;2023-04-03T06:08:45;5.55;;;3.10;;
45905;SDS011;31619;49.008;12.106;2023-04-03T06:11:11;5.40;;;3.50;;
45905;SDS011;31619;49.008;12.106;2023-04-03T06:13:36;4.18;;;3.30;;
45905;SDS011;31619;49.008;12.106;2023-04-03T06:16:02;2.95;;;2.75;;
45905;SDS011;31619;49.008;12.106;2023-04-03T06:18:28;3.65;;;3.30;;
45905;SDS011;31619;49.008;12.106;2023-04-03T06:20:54;3.80;;;2.90;;
45905;SDS011;31619;49.008;12.106;2023-04-03T06:23:20;4.55;;;3.20;;
45905;SDS011;31619;49.008;12.106;2023-04-03T06:25:46;3.58;;;3.28;;
45905;SDS011;31619;49.008;12.106;2023-04-03T06:28:12;3.45;;;3.03;;
45905;SDS011;31619;49.008;12.106;2023-04-03T06:30:37;4.32;;;3.22;;
45905;SDS011;31619;49.008;12.106;2023-04-03T06:33:03;5.00;;;3.38;;
45905;SDS011;31619;49.008;12.106;2023-04-03T06:35:28;3.50;;;3.20;;
45905;SDS011;31619;49.008;12.106;2023-04-03T06:37:55;4.28;;;3.97;;
45905;SDS011;31619;49.008;12.106;2023-04-03T06:40:22;7.15;;;3.53;;
45905;SDS011;31619;49.008;12.106;2023-04-03T06:42:50;3.35;;;3.05;;
45905;SDS011;31619;49.008;12.106;2023-04-03T06:45:16;3.10;;;2.80;;
45905;SDS011;31619;49.008;12.106;2023-04-03T06:47:42;3.85;;;2.90;;
45905;SDS011;31619;49.008;12.106;2023-04-03T06:50:09;3.38;;;3.17;;
45905;SDS011;31619;49.008;12.106;2023-04-03T06:52:36;3.80;;;3.47;;
45905;SDS011;31619;49.008;12.106;2023-04-03T06:55:02;3.47;;;3.17;;
45905;SDS011;31619;49.008;12.106;2023-04-03T06:57:28;4.15;;;3.00;;
45905;SDS011;31619;49.008;12.106;2023-04-03T06:59:54;4.35;;;3.22;;
45905;SDS011;31619;49.008;12.106;2023-04-03T07:02:20;3.53;;;3.22;;
45905;SDS011;31619;49.008;12.106;2023-04-03T07:04:46;4.97;;;3.20;;
45905;SDS011;31619;49.008;12.106;2023-04-03T07:07:12;3.08;;;2.90;;
45905;SDS011;31619;49.008;12.106;2023-04-03T07:09:37;3.40;;;3.20;;
45905;SDS011;31619;49.008;12.106;2023-04-03T07:12:03;8.88;;;3.10;;
45905;SDS011;31619;49.008;12.106;2023-04-03T07:14:29;3.47;;;2.70;;
45905;SDS011;31619;49.008;12.106;2023-04-03T07:16:54;4.65;;;3.03;;
45905;SDS011;31619;49.008;12.106;2023-04-03T07:19:20;4.35;;;3.03;;
45905;SDS011;31619;49.008;12.106;2023-04-03T07:21:46;3.03;;;2.85;;
45905;SDS011;31619;49.008;12.106;2023-04-03T07:24:12;2.78;;;2.60;;
45905;SDS011;31619;49.008;12.106;2023-04-03T07:26:38;4.00;;;2.83;;
45905;SDS011;31619;49.008;12.106;2023-04-03T07:29:04;3.70;;;2.97;;
45905;SDS011;31619;49.008;12.106;2023-04-03T07:31:29;2.60;;;2.40;;
45905;SDS011;31619;49.008;12.106;2023-04-03T07:33:55;5.38;;;2.85;;
45905;SDS011;31619;49.008;12.106;2023-04-03T07:36:21;4.22;;;2.70;;
45905;SDS011;31619;49.008;12.106;2023-04-03T07:38:48;4.72;;;3.03;;
45905;SDS011;31619;49.008;12.106;2023-04-03T07:41:15;2.55;;;2.35;;
45905;SDS011;31619;49.008;12.106;2023-04-03T07:43:42;4.25;;;2.97;;
45905;SDS011;31619;49.008;12.106;2023-04-03T07:46:08;3.83;;;2.60;;
45905;SDS011;31619;49.008;12.106;2023-04-03T07:48:34;2.67;;;2.45;;
45905;SDS011;31619;49.008;12.106;2023-04-03T07:51:00;3.88;;;2.40;;
45905;SDS011;31619;49.008;12.106;2023-04-03T07:53:27;2.72;;;2.47;;
45905;SDS011;31619;49.008;12.106;2023-04-03T07:55:53;2.60;;;2.40;;
45905;SDS011;31619;49.008;12.106;2023-04-03T07:58:21;3.22;;;2.33;;
45905;SDS011;31619;49.008;12.106;2023-04-03T08:00:47;1.90;;;1.80;;
45905;SDS011;31619;49.008;12.106;2023-04-03T08:03:13;3.60;;;2.33;;
45905;SDS011;31619;49.008;12.106;2023-04-03T08:05:42;2.70;;;2.13;;
45905;SDS011;31619;49.008;12.106;2023-04-03T08:08:10;3.22;;;2.55;;
45905;SDS011;31619;49.008;12.106;2023-04-03T08:10:37;2.63;;;2.40;;
45905;SDS011;31619;49.008;12.106;2023-04-03T08:13:03;2.45;;;2.25;;
45905;SDS011;31619;49.008;12.106;2023-04-03T08:15:30;2.70;;;2.50;;
45905;SDS011;31619;49.008;12.106;2023-04-03T08:17:56;2.40;;;2.20;;
45905;SDS011;31619;49.008;12.106;2023-04-03T08:20:22;2.35;;;2.15;;
45905;SDS011;31619;49.008;12.106;2023-04-03T08:22:47;2.58;;;1.70;;
45905;SDS011;31619;49.008;12.106;2023-04-03T08:25:13;2.67;;;1.95;;
45905;SDS011;31619;49.008;12.106;2023-04-03T08:27:39;5.13;;;2.28;;
45905;SDS011;31619;49.008;12.106;2023-04-03T08:30:05;4.30;;;2.53;;
45905;SDS011;31619;49.008;12.106;2023-04-03T08:32:33;1.98;;;1.88;;
45905;SDS011;31619;49.008;12.106;2023-04-03T08:34:59;2.15;;;1.92;;
45905;SDS011;31619;49.008;12.106;2023-04-03T08:37:25;1.90;;;1.65;;
45905;SDS011;31619;49.008;12.106;2023-04-03T08:39:51;2.92;;;2.03;;
45905;SDS011;31619;49.008;12.106;2023-04-03T08:45:00;2.25;;;1.70;;
45905;SDS011;31619;49.008;12.106;2023-04-03T08:47:45;1.85;;;1.75;;
45905;SDS011;31619;49.008;12.106;2023-04-03T08:50:18;1.70;;;1.60;;
45905;SDS011;31619;49.008;12.106;2023-04-03T08:52:49;3.03;;;1.60;;
45905;SDS011;31619;49.008;12.106;2023-04-03T08:55:22;2.25;;;1.88;;
45905;SDS011;31619;49.008;12.106;2023-04-03T08:58:01;1.73;;;1.63;;
45905;SDS011;31619;49.008;12.106;2023-04-03T09:00:54;1.73;;;1.63;;
45905;SDS011;31619;49.008;12.106;2023-04-03T09:03:28;1.88;;;1.50;;
45905;SDS011;31619;49.008;12.106;2023-04-03T09:05:57;1.60;;;1.30;;
45905;SDS011;31619;49.008;12.106;2023-04-03T09:08:30;1.73;;;1.63;;
45905;SDS011;31619;49.008;12.106;2023-04-03T09:14:16;2.15;;;1.35;;
45905;SDS011;31619;49.008;12.106;2023-04-03T09:16:38;2.53;;;1.77;;
45905;SDS011;31619;49.008;12.106;2023-04-03T09:19:26;1.50;;;1.40;;
45905;SDS011;31619;49.008;12.106;2023-04-03T09:22:15;1.48;;;1.38;;
45905;SDS011;31619;49.008;12.106;2023-04-03T09:24:45;2.25;;;1.50;;
45905;SDS011;31619;49.008;12.106;2023-04-03T09:27:15;1.40;;;1.30;;
45905;SDS011;31619;49.008;12.106;2023-04-03T09:29:43;1.40;;;1.30;;
45905;SDS011;31619;49.008;12.106;2023-04-03T09:32:26;1.58;;;1.48;;
45905;SDS011;31619;49.008;12.106;2023-04-03T09:34:54;1.50;;;1.40;;
45905;SDS011;31619;49.008;12.106;2023-04-03T09:37:34;2.40;;;1.30;;
45905;SDS011;31619;49.008;12.106;2023-04-03T09:40:01;1.75;;;1.30;;
45905;SDS011;31619;49.008;12.106;2023-04-03T09:42:29;1.60;;;1.50;;
45905;SDS011;31619;49.008;12.106;2023-04-03T09:45:05;2.22;;;1.10;;
45905;SDS011;31619;49.008;12.106;2023-04-03T09:47:46;1.40;;;1.30;;
45905;SDS011;31619;49.008;12.106;2023-04-03T09:52:41;1.73;;;1.52;;
45905;SDS011;31619;49.008;12.106;2023-04-03T09:55:16;2.35;;;1.50;;
45905;SDS011;31619;49.008;12.106;2023-04-03T09:57:51;1.10;;;1.10;;
45905;SDS011;31619;49.008;12.106;2023-04-03T10:00:22;1.77;;;1.25;;
45905;SDS011;31619;49.008;12.106;2023-04-03T10:02:51;1.48;;;1.13;;
45905;SDS011;31619;49.008;12.106;2023-04-03T10:05:40;1.88;;;1.33;;
45905;SDS011;31619;49.008;12.106;2023-04-03T10:08:09;1.73;;;1.50;;
45905;SDS011;31619;49.008;12.106;2023-04-03T10:10:35;1.33;;;1.20;;
45905;SDS011;31619;49.008;12.106;2023-04-03T10:15:44;1.25;;;1.13;;
45905;SDS011;31619;49.008;12.106;2023-04-03T10:20:48;1.40;;;0.93;;
45905;SDS011;31619;49.008;12.106;2023-04-03T10:26:38;2.08;;;1.40;;
45905;SDS011;31619;49.008;12.106;2023-04-03T10:34:44;1.60;;;1.50;;
45905;SDS011;31619;49.008;12.106;2023-04-03T10:37:17;1.00;;;1.00;;
45905;SDS011;31619;49.008;12.106;2023-04-03T10:45:49;1.23;;;1.02;;
45905;SDS011;31619;49.008;12.106;2023-04-03T10:48:43;1.40;;;1.30;;
45905;SDS011;31619;49.008;12.106;2023-04-03T10:51:23;2.30;;;1.38;;
45905;SDS011;31619;49.008;12.106;2023-04-03T10:54:17;1.92;;;1.02;;
45905;SDS011;31619;49.008;12.106;2023-04-03T10:59:25;1.05;;;1.02;;
45905;SDS011;31619;49.008;12.106;2023-04-03T11:01:56;1.42;;;1.33;;
45905;SDS011;31619;49.008;12.106;2023-04-03T11:04:26;1.58;;;1.40;;
45905;SDS011;31619;49.008;12.106;2023-04-03T11:07:15;4.30;;;1.27;;
45905;SDS011;31619;49.008;12.106;2023-04-03T11:09:46;1.10;;;1.05;;
45905;SDS011;31619;49.008;12.106;2023-04-03T11:12:18;1.50;;;1.40;;
45905;SDS011;31619;49.008;12.106;2023-04-03T11:14:50;1.00;;;1.00;;
45905;SDS011;31619;49.008;12.106;2023-04-03T11:19:49;1.55;;;1.33;;
45905;SDS011;31619;49.008;12.106;2023-04-03T11:22:31;1.60;;;1.50;;
45905;SDS011;31619;49.008;12.106;2023-04-03T11:27:30;1.17;;;1.15;;
45905;SDS011;31619;49.008;12.106;2023-04-03T11:30:05;2.28;;;1.27;;
45905;SDS011;31619;49.008;12.106;2023-04-03T11:35:16;1.50;;;1.40;;
45905;SDS011;31619;49.008;12.106;2023-04-03T11:37:48;1.88;;;1.45;;
45905;SDS011;31619;49.008;12.106;2023-04-03T11:42:48;1.67;;;1.58;;
45905;SDS011;31619;49.008;12.106;2023-04-03T12:03:32;1.38;;;1.20;;
45905;SDS011;31619;49.008;12.106;2023-04-03T12:13:36;2.25;;;1.20;;
45905;SDS011;31619;49.008;12.106;2023-04-03T12:16:19;1.35;;;1.25;;
45905;SDS011;31619;49.008;12.106;2023-04-03T12:21:14;2.25;;;1.40;;
45905;SDS011;31619;49.008;12.106;2023-04-03T12:29:20;1.40;;;1.30;;
45905;SDS011;31619;49.008;12.106;2023-04-03T12:40:24;1.65;;;1.40;;
45905;SDS011;31619;49.008;12.106;2023-04-03T12:46:14;2.67;;;1.20;;
45905;SDS011;31619;49.008;12.106;2023-04-03T12:51:19;2.00;;;1.50;;
45905;SDS011;31619;49.008;12.106;2023-04-03T12:54:00;1.58;;;1.48;;
45905;SDS011;31619;49.008;12.106;2023-04-03T12:56:31;1.20;;;1.20;;
45905;SDS011;31619;49.008;12.106;2023-04-03T13:01:53;1.58;;;1.48;;
45905;SDS011;31619;49.008;12.106;2023-04-03T13:04:20;1.23;;;1.17;;
45905;SDS011;31619;49.008;12.106;2023-04-03T13:06:46;2.65;;;1.42;;
45905;SDS011;31619;49.008;12.106;2023-04-03T13:09:22;1.90;;;1.20;;
45905;SDS011;31619;49.008;12.106;2023-04-03T13:11:59;1.67;;;1.58;;
45905;SDS011;31619;49.008;12.106;2023-04-03T13:14:28;2.70;;;1.40;;
45905;SDS011;31619;49.008;12.106;2023-04-03T13:16:59;1.33;;;1.27;;
45905;SDS011;31619;49.008;12.106;2023-04-03T13:19:29;1.38;;;1.38;;
45905;SDS011;31619;49.008;12.106;2023-04-03T13:21:59;1.42;;;1.33;;
45905;SDS011;31619;49.008;12.106;2023-04-03T13:24:29;3.10;;;1.55;;
45905;SDS011;31619;49.008;12.106;2023-04-03T13:26:57;1.50;;;1.40;;
45905;SDS011;31619;49.008;12.106;2023-04-03T13:29:34;1.70;;;1.60;;
45905;SDS011;31619;49.008;12.106;2023-04-03T13:32:02;1.08;;;1.08;;
45905;SDS011;31619;49.008;12.106;2023-04-03T13:34:35;1.50;;;1.23;;
45905;SDS011;31619;49.008;12.106;2023-04-03T13:37:03;1.48;;;1.38;;
45905;SDS011;31619;49.008;12.106;2023-04-03T13:39:31;1.40;;;1.30;;
45905;SDS011;31619;49.008;12.106;2023-04-03T13:41:58;1.52;;;1.42;;
45905;SDS011;31619;49.008;12.106;2023-04-03T13:44:36;1.20;;;1.10;;
45905;SDS011;31619;49.008;12.106;2023-04-03T13:49:37;4.20;;;1.90;;
45905;SDS011;31619;49.008;12.106;2023-04-03T13:52:21;1.50;;;1.40;;
45905;SDS011;31619;49.008;12.106;2023-04-03T13:55:30;1.10;;;1.10;;
45905;SDS011;31619;49.008;12.106;2023-04-03T14:00:39;1.35;;;1.30;;
45905;SDS011;31619;49.008;12.106;2023-04-03T14:03:36;1.70;;;1.60;;
45905;SDS011;31619;49.008;12.106;2023-04-03T14:06:04;2.13;;;1.30;;
45905;SDS011;31619;49.008;12.106;2023-04-03T14:08:31;1.88;;;1.20;;
45905;SDS011;31619;49.008;12.106;2023-04-03T14:10:57;1.52;;;1.42;;
45905;SDS011;31619;49.008;12.106;2023-04-03T14:13:23;1.88;;;1.77;;
45905;SDS011;31619;49.008;12.106;2023-04-03T14:15:49;1.30;;;1.30;;
45905;SDS011;31619;49.008;12.106;2023-04-03T14:18:17;1.30;;;1.20;;
45905;SDS011;31619;49.008;12.106;2023-04-03T14:20:44;1.67;;;1.50;;
45905;SDS011;31619;49.008;12.106;2023-04-03T14:23:10;1.33;;;1.20;;
45905;SDS011;31619;49.008;12.106;2023-04-03T14:25:36;1.77;;;1.15;;
45905;SDS011;31619;49.008;12.106;2023-04-03T14:28:06;1.42;;;1.30;;
45905;SDS011;31619;49.008;12.106;2023-04-03T14:30:40;1.00;;;1.00;;
45905;SDS011;31619;49.008;12.106;2023-04-03T14:33:05;1.70;;;1.60;;
45905;SDS011;31619;49.008;12.106;2023-04-03T14:35:32;1.63;;;1.20;;
45905;SDS011;31619;49.008;12.106;2023-04-03T14:37:57;1.48;;;1.38;;
45905;SDS011;31619;49.008;12.106;2023-04-03T14:40:24;1.85;;;1.52;;
45905;SDS011;31619;49.008;12.106;2023-04-03T14:42:51;1.17;;;1.17;;
45905;SDS011;31619;49.008;12.106;2023-04-03T14:45:20;1.45;;;1.35;;
45905;SDS011;31619;49.008;12.106;2023-04-03T14:47:47;1.35;;;1.35;;
45905;SDS011;31619;49.008;12.106;2023-04-03T14:50:18;1.50;;;1.40;;
45905;SDS011;31619;49.008;12.106;2023-04-03T14:52:46;1.65;;;1.30;;
45905;SDS011;31619;49.008;12.106;2023-04-03T14:55:14;1.48;;;1.38;;
45905;SDS011;31619;49.008;12.106;2023-04-03T14:57:41;1.20;;;1.20;;
45905;SDS011;31619;49.008;12.106;2023-04-03T15:00:11;1.60;;;1.50;;
45905;SDS011;31619;49.008;12.106;2023-04-03T15:02:41;4.07;;;1.50;;
45905;SDS011;31619;49.008;12.106;2023-04-03T15:05:08;1.67;;;1.50;;
45905;SDS011;31619;49.008;12.106;2023-04-03T15:07:36;2.00;;;1.63;;
45905;SDS011;31619;49.008;12.106;2023-04-03T15:10:14;1.35;;;1.33;;
45905;SDS011;31619;49.008;12.106;2023-04-03T15:12:40;1.45;;;1.20;;
45905;SDS011;31619;49.008;12.106;2023-04-03T15:15:07;1.27;;;1.20;;
45905;SDS011;31619;49.008;12.106;2023-04-03T15:17:33;2.17;;;1.50;;
45905;SDS011;31619;49.008;12.106;2023-04-03T15:19:59;1.70;;;1.60;;
45905;SDS011;31619;49.008;12.106;2023-04-03T15:22:25;1.73;;;1.63;;
45905;SDS011;31619;49.008;12.106;2023-04-03T15:24:51;1.42;;;1.33;;
45905;SDS011;31619;49.008;12.106;2023-04-03T15:27:17;1.35;;;1.25;;
45905;SDS011;31619;49.008;12.106;2023-04-03T15:29:43;1.10;;;1.08;;
45905;SDS011;31619;49.008;12.106;2023-04-03T15:32:09;1.73;;;1.63;;
45905;SDS011;31619;49.008;12.106;2023-04-03T15:34:36;1.75;;;1.52;;
45905;SDS011;31619;49.008;12.106;2023-04-03T15:37:02;1.67;;;1.58;;
45905;SDS011;31619;49.008;12.106;2023-04-03T15:39:27;1.80;;;1.50;;
45905;SDS011;31619;49.008;12.106;2023-04-03T15:41:53;1.65;;;1.52;;
45905;SDS011;31619;49.008;12.106;2023-04-03T15:44:20;1.25;;;1.10;;
45905;SDS011;31619;49.008;12.106;2023-04-03T15:46:47;1.20;;;1.20;;
45905;SDS011;31619;49.008;12.106;2023-04-03T15:49:16;1.40;;;1.30;;
45905;SDS011;31619;49.008;12.106;2023-04-03T15:51:43;1.70;;;1.52;;
45905;SDS011;31619;49.008;12.106;2023-04-03T15:54:09;1.45;;;1.20;;
45905;SDS011;31619;49.008;12.106;2023-04-03T15:56:35;1.52;;;1.35;;
45905;SDS011;31619;49.008;12.106;2023-04-03T15:59:00;2.70;;;1.45;;
45905;SDS011;31619;49.008;12.106;2023-04-03T16:01:26;1.35;;;1.25;;
45905;SDS011;31619;49.008;12.106;2023-04-03T16:03:52;1.60;;;1.50;;
45905;SDS011;31619;49.008;12.106;2023-04-03T16:06:18;2.53;;;1.40;;
45905;SDS011;31619;49.008;12.106;2023-04-03T16:08:44;1.40;;;1.30;;
45905;SDS011;31619;49.008;12.106;2023-04-03T16:11:12;1.30;;;1.20;;
45905;SDS011;31619;49.008;12.106;2023-04-03T16:13:38;1.60;;;1.50;;
45905;SDS011;31619;49.008;12.106;2023-04-03T16:16:03;1.17;;;1.08;;
45905;SDS011;31619;49.008;12.106;2023-04-03T16:18:29;1.60;;;1.50;;
45905;SDS011;31619;49.008;12.106;2023-04-03T16:20:56;1.55;;;1.45;;
45905;SDS011;31619;49.008;12.106;2023-04-03T16:23:22;2.47;;;1.48;;
45905;SDS011;31619;49.008;12.106;2023-04-03T16:25:49;1.42;;;1.30;;